sensor_id;sensor_type;location;lat;lon;timestamp;temperature;humidity
5960;DHT22;3006;50.956;7.002;2023-04-03T00:01:13;5.90;99.90
5960;DHT22;3006;50.956;7.002;2023-04-03T00:03:41;5.90;99.90
5960;DHT22;3006;50.956;7.002;2023-04-03T00:06:10;5.90;99.90
5960;DHT22;3006;50.956;7.002;2023-04-03T00:08:39;5.90;99.90
5960;DHT22;3006;50.956;7.002;2023-04-03T00:11:09;5.80;99.90
5960;DHT22;3006;50.956;7.002;2023-04-03T00:13:38;5.80;99.90
5960;DHT22;3006;50.956;7.002;2023-04-03T00:16:07;5.80;99.90
5960;DHT22;3006;50.956;7.002;2023-04-03T00:18:35;5.80;99.90
5960;DHT22;3006;50.956;7.002;2023-04-03T00:21:04;5.70;99.90
5960;DHT22;3006;50.956;7.002;2023-04-03T00:23:33;5.70;99.90
5960;DHT22;3006;50.956;7.002;2023-04-03T00:26:01;5.70;99.90
5960;DHT22;3006;50.956;7.002;2023-04-03T00:28:30;5.70;99.90
5960;DHT22;3006;50.956;7.002;2023-04-03T00:30:58;5.60;99.90
5960;DHT22;3006;50.956;7.002;2023-04-03T00:33:27;5.60;99.90
5960;DHT22;3006;50.956;7.002;2023-04-03T00:35:55;5.60;99.90
5960;DHT22;3006;50.956;7.002;2023-04-03T00:38:23;5.60;99.90
5960;DHT22;3006;50.956;7.002;2023-04-03T00:40:51;5.50;99.90
5960;DHT22;3006;50.956;7.002;2023-04-03T00:43:22;5.50;99.90
5960;DHT22;3006;50.956;7.002;2023-04-03T00:45:52;5.40;99.90
5960;DHT22;3006;50.956;7.002;2023-04-03T00:48:25;5.40;99.90
5960;DHT22;3006;50.956;7.002;2023-04-03T00:50:53;5.30;99.90
5960;DHT22;3006;50.956;7.002;2023-04-03T00:53:24;5.20;99.90
5960;DHT22;3006;50.956;7.002;2023-04-03T00:55:54;5.20;99.90
5960;DHT22;3006;50.956;7.002;2023-04-03T00:58:27;5.10;99.90
5960;DHT22;3006;50.956;7.002;2023-04-03T01:00:58;5.10;99.90
5960;DHT22;3006;50.956;7.002;2023-04-03T01:03:28;5.00;99.90
5960;DHT22;3006;50.956;7.002;2023-04-03T01:05:59;5.00;99.90
5960;DHT22;3006;50.956;7.002;2023-04-03T01:08:28;5.00;99.90
5960;DHT22;3006;50.956;7.002;2023-04-03T01:10:57;5.00;99.90
5960;DHT22;3006;50.956;7.002;2023-04-03T01:13:29;5.00;99.90
5960;DHT22;3006;50.956;7.002;2023-04-03T01:16:00;5.10;99.90
5960;DHT22;3006;50.956;7.002;2023-04-03T01:18:30;5.10;99.90
5960;DHT22;3006;50.956;7.002;2023-04-03T01:27:10;5.10;99.90
5960;DHT22;3006;50.956;7.002;2023-04-03T01:29:39;5.10;99.90
5960;DHT22;3006;50.956;7.002;2023-04-03T01:32:09;5.10;99.90
5960;DHT22;3006;50.956;7.002;2023-04-03T01:34:37;5.00;99.90
5960;DHT22;3006;50.956;7.002;2023-04-03T01:37:05;5.00;99.90
5960;DHT22;3006;50.956;7.002;2023-04-03T01:39:33;5.10;99.90
5960;DHT22;3006;50.956;7.002;2023-04-03T01:42:02;5.00;99.90
5960;DHT22;3006;50.956;7.002;2023-04-03T01:44:35;5.10;99.90
5960;DHT22;3006;50.956;7.002;2023-04-03T01:47:05;5.10;99.90
5960;DHT22;3006;50.956;7.002;2023-04-03T01:49:36;5.00;99.90
5960;DHT22;3006;50.956;7.002;2023-04-03T01:52:04;5.00;99.90
5960;DHT22;3006;50.956;7.002;2023-04-03T01:54:32;5.00;99.90
5960;DHT22;3006;50.956;7.002;2023-04-03T01:57:00;4.90;99.90
5960;DHT22;3006;50.956;7.002;2023-04-03T01:59:28;4.90;99.90
5960;DHT22;3006;50.956;7.002;2023-04-03T02:01:56;4.80;99.90
5960;DHT22;3006;50.956;7.002;2023-04-03T02:04:24;4.80;99.90
5960;DHT22;3006;50.956;7.002;2023-04-03T02:06:54;4.70;99.90
5960;DHT22;3006;50.956;7.002;2023-04-03T02:09:22;4.70;99.90
5960;DHT22;3006;50.956;7.002;2023-04-03T02:11:52;4.70;99.90
5960;DHT22;3006;50.956;7.002;2023-04-03T02:14:20;4.70;99.90
5960;DHT22;3006;50.956;7.002;2023-04-03T02:16:50;4.70;99.90
5960;DHT22;3006;50.956;7.002;2023-04-03T02:19:21;4.70;99.90
5960;DHT22;3006;50.956;7.002;2023-04-03T02:21:49;4.70;99.90
5960;DHT22;3006;50.956;7.002;2023-04-03T02:24:19;4.60;99.90
5960;DHT22;3006;50.956;7.002;2023-04-03T02:26:47;4.60;99.90
5960;DHT22;3006;50.956;7.002;2023-04-03T02:29:15;4.60;99.90
5960;DHT22;3006;50.956;7.002;2023-04-03T02:31:43;4.60;99.90
5960;DHT22;3006;50.956;7.002;2023-04-03T02:34:12;4.60;99.90
5960;DHT22;3006;50.956;7.002;2023-04-03T02:36:40;4.60;99.90
5960;DHT22;3006;50.956;7.002;2023-04-03T02:39:09;4.60;99.90
5960;DHT22;3006;50.956;7.002;2023-04-03T02:41:39;4.50;99.90
5960;DHT22;3006;50.956;7.002;2023-04-03T02:44:13;4.50;99.90
5960;DHT22;3006;50.956;7.002;2023-04-03T02:46:41;4.50;99.90
5960;DHT22;3006;50.956;7.002;2023-04-03T02:49:10;4.50;99.90
5960;DHT22;3006;50.956;7.002;2023-04-03T02:51:38;4.50;99.90
5960;DHT22;3006;50.956;7.002;2023-04-03T02:54:06;4.50;99.90
5960;DHT22;3006;50.956;7.002;2023-04-03T02:56:39;4.50;99.90
5960;DHT22;3006;50.956;7.002;2023-04-03T02:59:07;4.50;99.90
5960;DHT22;3006;50.956;7.002;2023-04-03T03:01:37;4.50;99.90
5960;DHT22;3006;50.956;7.002;2023-04-03T03:04:05;4.40;99.90
5960;DHT22;3006;50.956;7.002;2023-04-03T03:06:33;4.40;99.90
5960;DHT22;3006;50.956;7.002;2023-04-03T03:09:03;4.40;99.90
5960;DHT22;3006;50.956;7.002;2023-04-03T03:11:32;4.40;99.90
5960;DHT22;3006;50.956;7.002;2023-04-03T03:14:03;4.30;99.90
5960;DHT22;3006;50.956;7.002;2023-04-03T03:16:32;4.30;99.90
5960;DHT22;3006;50.956;7.002;2023-04-03T03:19:00;4.30;99.90
5960;DHT22;3006;50.956;7.002;2023-04-03T03:21:28;4.30;99.90
5960;DHT22;3006;50.956;7.002;2023-04-03T03:23:56;4.30;99.90
5960;DHT22;3006;50.956;7.002;2023-04-03T03:26:26;4.30;99.90
5960;DHT22;3006;50.956;7.002;2023-04-03T03:28:54;4.20;99.90
5960;DHT22;3006;50.956;7.002;2023-04-03T03:31:24;4.20;99.90
5960;DHT22;3006;50.956;7.002;2023-04-03T03:33:52;4.20;99.90
5960;DHT22;3006;50.956;7.002;2023-04-03T03:36:21;4.20;99.90
5960;DHT22;3006;50.956;7.002;2023-04-03T03:38:50;4.20;99.90
5960;DHT22;3006;50.956;7.002;2023-04-03T03:41:18;4.20;99.90
5960;DHT22;3006;50.956;7.002;2023-04-03T03:43:46;4.20;99.90
5960;DHT22;3006;50.956;7.002;2023-04-03T03:46:15;4.20;99.90
5960;DHT22;3006;50.956;7.002;2023-04-03T03:48:45;4.20;99.90
5960;DHT22;3006;50.956;7.002;2023-04-03T03:51:14;4.20;99.90
5960;DHT22;3006;50.956;7.002;2023-04-03T03:53:43;4.20;99.90
5960;DHT22;3006;50.956;7.002;2023-04-03T03:56:14;4.20;99.90
5960;DHT22;3006;50.956;7.002;2023-04-03T03:58:44;4.20;99.90
5960;DHT22;3006;50.956;7.002;2023-04-03T04:01:13;4.20;99.90
5960;DHT22;3006;50.956;7.002;2023-04-03T04:03:47;4.20;99.90
5960;DHT22;3006;50.956;7.002;2023-04-03T04:06:20;4.20;99.90
5960;DHT22;3006;50.956;7.002;2023-04-03T04:08:49;4.20;99.90
5960;DHT22;3006;50.956;7.002;2023-04-03T04:11:17;4.20;99.90
5960;DHT22;3006;50.956;7.002;2023-04-03T04:13:46;4.10;99.90
5960;DHT22;3006;50.956;7.002;2023-04-03T04:16:16;4.20;99.90
5960;DHT22;3006;50.956;7.002;2023-04-03T04:18:44;4.20;99.90
5960;DHT22;3006;50.956;7.002;2023-04-03T04:21:14;4.20;99.90
5960;DHT22;3006;50.956;7.002;2023-04-03T04:23:43;4.20;99.90
5960;DHT22;3006;50.956;7.002;2023-04-03T04:26:12;4.20;99.90
5960;DHT22;3006;50.956;7.002;2023-04-03T04:28:41;4.10;99.90
5960;DHT22;3006;50.956;7.002;2023-04-03T04:31:09;4.20;99.90
5960;DHT22;3006;50.956;7.002;2023-04-03T04:33:37;4.20;99.90
5960;DHT22;3006;50.956;7.002;2023-04-03T04:36:07;4.10;99.90
5960;DHT22;3006;50.956;7.002;2023-04-03T04:38:38;4.10;99.90
5960;DHT22;3006;50.956;7.002;2023-04-03T04:41:06;4.10;99.90
5960;DHT22;3006;50.956;7.002;2023-04-03T04:43:35;4.10;99.90
5960;DHT22;3006;50.956;7.002;2023-04-03T04:46:05;4.10;99.90
5960;DHT22;3006;50.956;7.002;2023-04-03T04:48:38;4.10;99.90
5960;DHT22;3006;50.956;7.002;2023-04-03T04:51:07;4.10;99.90
5960;DHT22;3006;50.956;7.002;2023-04-03T04:53:38;4.10;99.90
5960;DHT22;3006;50.956;7.002;2023-04-03T04:56:08;4.10;99.90
5960;DHT22;3006;50.956;7.002;2023-04-03T04:58:38;4.10;99.90
5960;DHT22;3006;50.956;7.002;2023-04-03T05:01:08;4.20;99.90
5960;DHT22;3006;50.956;7.002;2023-04-03T05:03:45;4.20;99.90
5960;DHT22;3006;50.956;7.002;2023-04-03T05:06:15;4.20;99.90
5960;DHT22;3006;50.956;7.002;2023-04-03T05:08:45;4.20;99.90
5960;DHT22;3006;50.956;7.002;2023-04-03T05:11:13;4.10;99.90
5960;DHT22;3006;50.956;7.002;2023-04-03T05:13:43;4.20;99.90
5960;DHT22;3006;50.956;7.002;2023-04-03T05:16:11;4.10;99.90
5960;DHT22;3006;50.956;7.002;2023-04-03T05:18:39;4.20;99.90
5960;DHT22;3006;50.956;7.002;2023-04-03T05:21:12;4.10;99.90
5960;DHT22;3006;50.956;7.002;2023-04-03T05:23:40;4.10;99.90
5960;DHT22;3006;50.956;7.002;2023-04-03T05:26:10;4.10;99.90
5960;DHT22;3006;50.956;7.002;2023-04-03T05:28:38;4.20;99.90
5960;DHT22;3006;50.956;7.002;2023-04-03T05:31:07;4.20;99.90
5960;DHT22;3006;50.956;7.002;2023-04-03T05:33:36;4.20;99.90
5960;DHT22;3006;50.956;7.002;2023-04-03T05:36:07;4.20;99.90
5960;DHT22;3006;50.956;7.002;2023-04-03T05:38:42;4.20;99.90
5960;DHT22;3006;50.956;7.002;2023-04-03T05:41:11;4.20;99.90
5960;DHT22;3006;50.956;7.002;2023-04-03T05:43:40;4.20;99.90
5960;DHT22;3006;50.956;7.002;2023-04-03T05:46:10;4.30;99.90
5960;DHT22;3006;50.956;7.002;2023-04-03T05:48:41;4.30;99.90
5960;DHT22;3006;50.956;7.002;2023-04-03T05:51:15;4.20;99.90
5960;DHT22;3006;50.956;7.002;2023-04-03T05:53:46;4.30;99.90
5960;DHT22;3006;50.956;7.002;2023-04-03T05:56:16;4.30;99.90
5960;DHT22;3006;50.956;7.002;2023-04-03T05:58:44;4.30;99.90
5960;DHT22;3006;50.956;7.002;2023-04-03T06:01:12;4.40;99.90
5960;DHT22;3006;50.956;7.002;2023-04-03T06:03:43;4.50;99.90
5960;DHT22;3006;50.956;7.002;2023-04-03T06:06:13;4.50;99.90
5960;DHT22;3006;50.956;7.002;2023-04-03T06:08:42;4.50;99.90
5960;DHT22;3006;50.956;7.002;2023-04-03T06:11:11;4.50;99.90
5960;DHT22;3006;50.956;7.002;2023-04-03T06:13:40;4.50;99.90
5960;DHT22;3006;50.956;7.002;2023-04-03T06:16:10;4.60;99.90
5960;DHT22;3006;50.956;7.002;2023-04-03T06:18:41;4.60;99.90
5960;DHT22;3006;50.956;7.002;2023-04-03T06:21:09;4.70;99.90
5960;DHT22;3006;50.956;7.002;2023-04-03T06:23:37;4.70;99.90
5960;DHT22;3006;50.956;7.002;2023-04-03T06:26:05;4.70;99.90
5960;DHT22;3006;50.956;7.002;2023-04-03T06:28:33;4.80;99.90
5960;DHT22;3006;50.956;7.002;2023-04-03T06:31:03;4.80;99.90
5960;DHT22;3006;50.956;7.002;2023-04-03T06:33:31;4.90;99.90
5960;DHT22;3006;50.956;7.002;2023-04-03T06:35:59;4.90;99.90
5960;DHT22;3006;50.956;7.002;2023-04-03T06:38:28;5.00;99.90
5960;DHT22;3006;50.956;7.002;2023-04-03T06:40:56;5.10;99.90
5960;DHT22;3006;50.956;7.002;2023-04-03T06:43:24;5.10;99.90
5960;DHT22;3006;50.956;7.002;2023-04-03T06:45:53;5.10;99.90
5960;DHT22;3006;50.956;7.002;2023-04-03T06:48:22;5.20;99.90
5960;DHT22;3006;50.956;7.002;2023-04-03T06:50:50;5.30;99.90
5960;DHT22;3006;50.956;7.002;2023-04-03T06:53:18;5.30;99.90
5960;DHT22;3006;50.956;7.002;2023-04-03T06:55:46;5.40;99.90
5960;DHT22;3006;50.956;7.002;2023-04-03T06:58:15;5.50;99.90
5960;DHT22;3006;50.956;7.002;2023-04-03T07:00:45;5.60;99.90
5960;DHT22;3006;50.956;7.002;2023-04-03T07:03:14;5.60;99.90
5960;DHT22;3006;50.956;7.002;2023-04-03T07:05:44;5.60;99.90
5960;DHT22;3006;50.956;7.002;2023-04-03T07:08:12;5.60;99.90
5960;DHT22;3006;50.956;7.002;2023-04-03T07:10:40;5.70;99.90
5960;DHT22;3006;50.956;7.002;2023-04-03T07:13:08;5.70;99.90
5960;DHT22;3006;50.956;7.002;2023-04-03T07:15:36;5.70;99.90
5960;DHT22;3006;50.956;7.002;2023-04-03T07:18:05;5.70;99.90
5960;DHT22;3006;50.956;7.002;2023-04-03T07:20:33;5.80;99.90
5960;DHT22;3006;50.956;7.002;2023-04-03T07:23:02;5.80;99.90
5960;DHT22;3006;50.956;7.002;2023-04-03T07:25:31;5.80;99.90
5960;DHT22;3006;50.956;7.002;2023-04-03T07:28:00;5.90;99.90
5960;DHT22;3006;50.956;7.002;2023-04-03T07:30:28;5.80;99.90
5960;DHT22;3006;50.956;7.002;2023-04-03T07:32:56;5.90;99.90
5960;DHT22;3006;50.956;7.002;2023-04-03T07:35:24;6.00;99.90
5960;DHT22;3006;50.956;7.002;2023-04-03T07:37:53;6.00;99.90
5960;DHT22;3006;50.956;7.002;2023-04-03T07:40:22;6.10;99.90
5960;DHT22;3006;50.956;7.002;2023-04-03T07:42:50;6.10;99.90
5960;DHT22;3006;50.956;7.002;2023-04-03T07:45:19;6.20;99.90
5960;DHT22;3006;50.956;7.002;2023-04-03T07:47:47;6.20;99.90
5960;DHT22;3006;50.956;7.002;2023-04-03T07:50:15;6.20;99.90
5960;DHT22;3006;50.956;7.002;2023-04-03T07:52:44;6.10;99.90
5960;DHT22;3006;50.956;7.002;2023-04-03T07:55:12;6.20;99.90
5960;DHT22;3006;50.956;7.002;2023-04-03T07:57:42;6.20;99.90
5960;DHT22;3006;50.956;7.002;2023-04-03T08:00:11;6.30;99.90
5960;DHT22;3006;50.956;7.002;2023-04-03T08:02:40;6.40;99.90
5960;DHT22;3006;50.956;7.002;2023-04-03T08:05:08;6.40;99.90
5960;DHT22;3006;50.956;7.002;2023-04-03T08:07:37;6.40;99.90
5960;DHT22;3006;50.956;7.002;2023-04-03T08:10:06;6.40;99.90
5960;DHT22;3006;50.956;7.002;2023-04-03T08:12:34;6.40;99.90
5960;DHT22;3006;50.956;7.002;2023-04-03T08:15:06;6.50;99.90
5960;DHT22;3006;50.956;7.002;2023-04-03T08:17:35;6.60;99.90
5960;DHT22;3006;50.956;7.002;2023-04-03T08:20:03;6.60;99.90
5960;DHT22;3006;50.956;7.002;2023-04-03T08:22:33;6.70;99.90
5960;DHT22;3006;50.956;7.002;2023-04-03T08:25:01;6.80;99.90
5960;DHT22;3006;50.956;7.002;2023-04-03T08:27:29;6.90;99.90
5960;DHT22;3006;50.956;7.002;2023-04-03T08:29:58;7.00;99.90
5960;DHT22;3006;50.956;7.002;2023-04-03T08:32:27;7.00;99.90
5960;DHT22;3006;50.956;7.002;2023-04-03T08:34:56;7.10;99.90
5960;DHT22;3006;50.956;7.002;2023-04-03T08:37:24;7.20;99.90
5960;DHT22;3006;50.956;7.002;2023-04-03T08:39:52;7.30;99.90
5960;DHT22;3006;50.956;7.002;2023-04-03T08:42:31;7.30;99.90
5960;DHT22;3006;50.956;7.002;2023-04-03T08:45:09;7.40;99.90
5960;DHT22;3006;50.956;7.002;2023-04-03T08:47:43;7.40;99.90
5960;DHT22;3006;50.956;7.002;2023-04-03T08:50:16;7.40;99.90
5960;DHT22;3006;50.956;7.002;2023-04-03T08:52:48;7.40;99.90
5960;DHT22;3006;50.956;7.002;2023-04-03T08:55:22;7.50;99.90
5960;DHT22;3006;50.956;7.002;2023-04-03T08:57:57;7.50;99.90
5960;DHT22;3006;50.956;7.002;2023-04-03T09:00:29;7.60;99.20
5960;DHT22;3006;50.956;7.002;2023-04-03T09:02:59;7.70;97.90
5960;DHT22;3006;50.956;7.002;2023-04-03T09:05:35;7.60;97.50
5960;DHT22;3006;50.956;7.002;2023-04-03T09:08:14;7.60;97.20
5960;DHT22;3006;50.956;7.002;2023-04-03T09:10:46;7.60;97.70
5960;DHT22;3006;50.956;7.002;2023-04-03T09:13:24;7.60;97.60
5960;DHT22;3006;50.956;7.002;2023-04-03T09:15:54;7.60;97.90
5960;DHT22;3006;50.956;7.002;2023-04-03T09:18:28;7.70;97.50
5960;DHT22;3006;50.956;7.002;2023-04-03T09:21:03;7.70;97.40
5960;DHT22;3006;50.956;7.002;2023-04-03T09:23:38;7.80;97.50
5960;DHT22;3006;50.956;7.002;2023-04-03T09:26:13;7.90;97.50
5960;DHT22;3006;50.956;7.002;2023-04-03T09:28:42;7.90;97.50
5960;DHT22;3006;50.956;7.002;2023-04-03T09:31:20;7.90;97.40
5960;DHT22;3006;50.956;7.002;2023-04-03T09:33:53;7.90;97.80
5960;DHT22;3006;50.956;7.002;2023-04-03T09:36:41;8.00;97.80
5960;DHT22;3006;50.956;7.002;2023-04-03T09:39:12;8.10;97.50
5960;DHT22;3006;50.956;7.002;2023-04-03T09:41:42;8.00;96.50
5960;DHT22;3006;50.956;7.002;2023-04-03T09:44:21;8.00;96.60
5960;DHT22;3006;50.956;7.002;2023-04-03T09:46:50;8.10;96.40
5960;DHT22;3006;50.956;7.002;2023-04-03T09:49:19;8.10;94.50
5960;DHT22;3006;50.956;7.002;2023-04-03T09:51:47;8.10;91.60
5960;DHT22;3006;50.956;7.002;2023-04-03T09:54:33;8.10;90.40
5960;DHT22;3006;50.956;7.002;2023-04-03T09:57:07;8.20;87.60
5960;DHT22;3006;50.956;7.002;2023-04-03T09:59:38;8.30;86.40
5960;DHT22;3006;50.956;7.002;2023-04-03T10:02:23;8.30;83.30
5960;DHT22;3006;50.956;7.002;2023-04-03T10:04:53;8.30;83.70
5960;DHT22;3006;50.956;7.002;2023-04-03T10:07:37;8.50;84.40
5960;DHT22;3006;50.956;7.002;2023-04-03T10:10:17;8.60;82.40
5960;DHT22;3006;50.956;7.002;2023-04-03T10:12:47;8.80;81.60
5960;DHT22;3006;50.956;7.002;2023-04-03T10:15:16;8.90;77.20
5960;DHT22;3006;50.956;7.002;2023-04-03T10:17:55;8.90;74.40
5960;DHT22;3006;50.956;7.002;2023-04-03T10:20:34;8.90;73.70
5960;DHT22;3006;50.956;7.002;2023-04-03T10:23:15;8.90;71.70
5960;DHT22;3006;50.956;7.002;2023-04-03T10:25:55;8.90;72.30
5960;DHT22;3006;50.956;7.002;2023-04-03T10:28:35;8.90;71.30
5960;DHT22;3006;50.956;7.002;2023-04-03T10:31:11;9.00;73.10
5960;DHT22;3006;50.956;7.002;2023-04-03T10:33:51;9.10;72.50
5960;DHT22;3006;50.956;7.002;2023-04-03T10:36:33;9.10;71.60
5960;DHT22;3006;50.956;7.002;2023-04-03T10:39:11;9.20;72.10
5960;DHT22;3006;50.956;7.002;2023-04-03T10:41:51;9.20;72.90
5960;DHT22;3006;50.956;7.002;2023-04-03T10:44:54;9.30;72.10
5960;DHT22;3006;50.956;7.002;2023-04-03T10:47:32;9.40;71.80
5960;DHT22;3006;50.956;7.002;2023-04-03T10:50:20;9.40;72.70
5960;DHT22;3006;50.956;7.002;2023-04-03T10:52:57;9.50;72.40
5960;DHT22;3006;50.956;7.002;2023-04-03T10:55:34;9.40;71.30
5960;DHT22;3006;50.956;7.002;2023-04-03T10:58:04;9.30;71.20
5960;DHT22;3006;50.956;7.002;2023-04-03T11:00:37;9.40;72.40
5960;DHT22;3006;50.956;7.002;2023-04-03T11:03:13;9.50;72.60
5960;DHT22;3006;50.956;7.002;2023-04-03T11:05:44;9.50;70.90
5960;DHT22;3006;50.956;7.002;2023-04-03T11:08:22;9.50;70.90
5960;DHT22;3006;50.956;7.002;2023-04-03T11:10:56;9.50;69.60
5960;DHT22;3006;50.956;7.002;2023-04-03T11:13:30;9.50;69.80
5960;DHT22;3006;50.956;7.002;2023-04-03T11:16:01;9.40;68.80
5960;DHT22;3006;50.956;7.002;2023-04-03T11:18:37;9.40;68.10
5960;DHT22;3006;50.956;7.002;2023-04-03T11:21:11;9.40;68.10
5960;DHT22;3006;50.956;7.002;2023-04-03T11:23:42;9.40;69.50
5960;DHT22;3006;50.956;7.002;2023-04-03T11:26:17;9.60;68.60
5960;DHT22;3006;50.956;7.002;2023-04-03T11:28:45;9.70;68.80
5960;DHT22;3006;50.956;7.002;2023-04-03T11:31:23;9.70;68.50
5960;DHT22;3006;50.956;7.002;2023-04-03T11:34:03;9.70;68.50
5960;DHT22;3006;50.956;7.002;2023-04-03T11:36:39;9.70;68.40
5960;DHT22;3006;50.956;7.002;2023-04-03T11:39:18;9.70;69.30
5960;DHT22;3006;50.956;7.002;2023-04-03T11:41:48;9.90;68.30
5960;DHT22;3006;50.956;7.002;2023-04-03T11:44:33;9.90;68.00
5960;DHT22;3006;50.956;7.002;2023-04-03T11:47:03;10.00;69.30
5960;DHT22;3006;50.956;7.002;2023-04-03T11:49:58;10.10;69.20
5960;DHT22;3006;50.956;7.002;2023-04-03T11:52:56;10.10;68.10
5960;DHT22;3006;50.956;7.002;2023-04-03T11:55:57;10.20;67.70
5960;DHT22;3006;50.956;7.002;2023-04-03T11:58:28;10.20;67.90
5960;DHT22;3006;50.956;7.002;2023-04-03T12:00:58;10.20;67.30
5960;DHT22;3006;50.956;7.002;2023-04-03T12:10:14;10.20;64.70
5960;DHT22;3006;50.956;7.002;2023-04-03T12:13:00;10.30;64.80
5960;DHT22;3006;50.956;7.002;2023-04-03T12:15:52;10.40;63.80
5960;DHT22;3006;50.956;7.002;2023-04-03T12:18:55;10.40;64.10
5960;DHT22;3006;50.956;7.002;2023-04-03T12:21:24;10.30;64.60
5960;DHT22;3006;50.956;7.002;2023-04-03T12:24:28;10.20;63.90
5960;DHT22;3006;50.956;7.002;2023-04-03T12:27:09;10.20;64.40
5960;DHT22;3006;50.956;7.002;2023-04-03T12:29:47;10.30;65.90
5960;DHT22;3006;50.956;7.002;2023-04-03T12:32:26;10.40;65.90
5960;DHT22;3006;50.956;7.002;2023-04-03T12:35:08;10.60;65.20
5960;DHT22;3006;50.956;7.002;2023-04-03T12:40:41;10.80;67.10
5960;DHT22;3006;50.956;7.002;2023-04-03T12:43:31;10.80;66.70
5960;DHT22;3006;50.956;7.002;2023-04-03T12:46:11;10.90;64.60
5960;DHT22;3006;50.956;7.002;2023-04-03T12:48:51;11.10;63.60
5960;DHT22;3006;50.956;7.002;2023-04-03T12:51:22;11.10;62.10
5960;DHT22;3006;50.956;7.002;2023-04-03T12:54:00;10.90;62.30
5960;DHT22;3006;50.956;7.002;2023-04-03T12:56:30;11.00;62.50
5960;DHT22;3006;50.956;7.002;2023-04-03T12:59:15;11.00;59.70
5960;DHT22;3006;50.956;7.002;2023-04-03T13:01:53;11.30;60.60
5960;DHT22;3006;50.956;7.002;2023-04-03T13:04:22;11.30;60.10
5960;DHT22;3006;50.956;7.002;2023-04-03T13:06:50;11.40;60.00
5960;DHT22;3006;50.956;7.002;2023-04-03T13:09:21;11.50;59.40
5960;DHT22;3006;50.956;7.002;2023-04-03T13:11:52;11.50;58.90
5960;DHT22;3006;50.956;7.002;2023-04-03T13:14:24;11.50;58.80
5960;DHT22;3006;50.956;7.002;2023-04-03T13:16:55;11.80;59.80
5960;DHT22;3006;50.956;7.002;2023-04-03T13:19:25;11.90;57.60
5960;DHT22;3006;50.956;7.002;2023-04-03T13:21:59;11.80;58.50
5960;DHT22;3006;50.956;7.002;2023-04-03T13:24:31;11.90;56.60
5960;DHT22;3006;50.956;7.002;2023-04-03T13:27:00;11.90;57.40
5960;DHT22;3006;50.956;7.002;2023-04-03T13:29:31;12.00;59.30
5960;DHT22;3006;50.956;7.002;2023-04-03T13:32:03;12.20;59.00
5960;DHT22;3006;50.956;7.002;2023-04-03T13:34:37;12.40;58.90
5960;DHT22;3006;50.956;7.002;2023-04-03T13:37:06;12.50;58.50
5960;DHT22;3006;50.956;7.002;2023-04-03T13:39:36;12.50;58.30
5960;DHT22;3006;50.956;7.002;2023-04-03T13:42:15;12.60;58.10
5960;DHT22;3006;50.956;7.002;2023-04-03T13:44:44;12.70;58.10
5960;DHT22;3006;50.956;7.002;2023-04-03T13:47:18;12.80;57.50
5960;DHT22;3006;50.956;7.002;2023-04-03T13:50:00;13.00;57.40
5960;DHT22;3006;50.956;7.002;2023-04-03T13:52:32;13.20;58.00
5960;DHT22;3006;50.956;7.002;2023-04-03T13:55:17;13.20;57.10
5960;DHT22;3006;50.956;7.002;2023-04-03T13:57:55;12.80;56.90
5960;DHT22;3006;50.956;7.002;2023-04-03T14:00:35;13.00;56.70
5960;DHT22;3006;50.956;7.002;2023-04-03T14:03:16;13.10;56.90
5960;DHT22;3006;50.956;7.002;2023-04-03T14:05:45;13.30;56.70
5960;DHT22;3006;50.956;7.002;2023-04-03T14:08:13;13.40;57.80
5960;DHT22;3006;50.956;7.002;2023-04-03T14:10:43;13.60;58.40
5960;DHT22;3006;50.956;7.002;2023-04-03T14:13:12;13.90;58.30
5960;DHT22;3006;50.956;7.002;2023-04-03T14:15:41;14.20;58.30
5960;DHT22;3006;50.956;7.002;2023-04-03T14:18:13;14.50;56.90
5960;DHT22;3006;50.956;7.002;2023-04-03T14:20:42;14.70;57.20
5960;DHT22;3006;50.956;7.002;2023-04-03T14:23:10;14.70;56.30
5960;DHT22;3006;50.956;7.002;2023-04-03T14:25:40;14.60;57.40
5960;DHT22;3006;50.956;7.002;2023-04-03T14:28:15;14.90;56.90
5960;DHT22;3006;50.956;7.002;2023-04-03T14:30:45;15.00;57.30
5960;DHT22;3006;50.956;7.002;2023-04-03T14:33:17;15.30;56.20
5960;DHT22;3006;50.956;7.002;2023-04-03T14:35:47;15.90;54.60
5960;DHT22;3006;50.956;7.002;2023-04-03T14:38:22;16.90;53.40
5960;DHT22;3006;50.956;7.002;2023-04-03T14:40:52;17.70;51.20
5960;DHT22;3006;50.956;7.002;2023-04-03T14:43:24;17.90;49.80
5960;DHT22;3006;50.956;7.002;2023-04-03T14:45:53;18.70;49.30
5960;DHT22;3006;50.956;7.002;2023-04-03T14:48:24;19.30;47.60
5960;DHT22;3006;50.956;7.002;2023-04-03T14:50:54;20.10;46.00
5960;DHT22;3006;50.956;7.002;2023-04-03T14:53:31;20.70;44.80
5960;DHT22;3006;50.956;7.002;2023-04-03T14:56:04;21.40;42.30
5960;DHT22;3006;50.956;7.002;2023-04-03T14:58:33;21.20;41.80
5960;DHT22;3006;50.956;7.002;2023-04-03T15:01:03;21.20;41.60
5960;DHT22;3006;50.956;7.002;2023-04-03T15:03:32;21.90;40.70
5960;DHT22;3006;50.956;7.002;2023-04-03T15:06:00;22.10;40.00
5960;DHT22;3006;50.956;7.002;2023-04-03T15:08:29;22.10;39.90
5960;DHT22;3006;50.956;7.002;2023-04-03T15:10:57;22.60;39.10
5960;DHT22;3006;50.956;7.002;2023-04-03T15:13:25;22.60;39.00
5960;DHT22;3006;50.956;7.002;2023-04-03T15:15:53;22.90;38.90
5960;DHT22;3006;50.956;7.002;2023-04-03T15:18:24;23.10;38.50
5960;DHT22;3006;50.956;7.002;2023-04-03T15:20:57;23.60;37.50
5960;DHT22;3006;50.956;7.002;2023-04-03T15:23:25;22.70;37.60
5960;DHT22;3006;50.956;7.002;2023-04-03T15:25:55;21.00;39.40
5960;DHT22;3006;50.956;7.002;2023-04-03T15:28:26;18.80;40.80
5960;DHT22;3006;50.956;7.002;2023-04-03T15:30:56;16.70;42.80
5960;DHT22;3006;50.956;7.002;2023-04-03T15:33:25;15.60;44.20
5960;DHT22;3006;50.956;7.002;2023-04-03T15:35:53;14.70;45.60
5960;DHT22;3006;50.956;7.002;2023-04-03T15:38:34;14.10;46.20
5960;DHT22;3006;50.956;7.002;2023-04-03T15:41:04;13.70;47.10
5960;DHT22;3006;50.956;7.002;2023-04-03T15:43:32;13.50;46.60
5960;DHT22;3006;50.956;7.002;2023-04-03T15:46:02;13.40;47.40
5960;DHT22;3006;50.956;7.002;2023-04-03T15:48:30;13.20;48.20
5960;DHT22;3006;50.956;7.002;2023-04-03T15:50:59;13.10;48.80
5960;DHT22;3006;50.956;7.002;2023-04-03T15:53:28;13.00;48.80
5960;DHT22;3006;50.956;7.002;2023-04-03T15:55:58;12.90;49.70
5960;DHT22;3006;50.956;7.002;2023-04-03T15:58:26;12.90;51.50
5960;DHT22;3006;50.956;7.002;2023-04-03T16:00:54;12.80;51.70
5960;DHT22;3006;50.956;7.002;2023-04-03T16:03:22;12.70;51.60
5960;DHT22;3006;50.956;7.002;2023-04-03T16:05:51;12.70;52.00
5960;DHT22;3006;50.956;7.002;2023-04-03T16:08:19;12.60;51.90
5960;DHT22;3006;50.956;7.002;2023-04-03T16:10:48;12.40;51.20
5960;DHT22;3006;50.956;7.002;2023-04-03T16:13:17;12.20;51.80
5960;DHT22;3006;50.956;7.002;2023-04-03T16:15:45;12.10;51.70
5960;DHT22;3006;50.956;7.002;2023-04-03T16:18:15;12.10;52.40
5960;DHT22;3006;50.956;7.002;2023-04-03T16:20:45;12.10;52.40
5960;DHT22;3006;50.956;7.002;2023-04-03T16:23:14;12.00;52.20
5960;DHT22;3006;50.956;7.002;2023-04-03T16:25:47;12.00;52.80
5960;DHT22;3006;50.956;7.002;2023-04-03T16:28:18;11.90;52.80
5960;DHT22;3006;50.956;7.002;2023-04-03T16:30:47;11.80;52.80
5960;DHT22;3006;50.956;7.002;2023-04-03T16:33:16;11.70;52.90
5960;DHT22;3006;50.956;7.002;2023-04-03T16:35:44;11.70;53.70
5960;DHT22;3006;50.956;7.002;2023-04-03T16:38:12;11.80;54.60
5960;DHT22;3006;50.956;7.002;2023-04-03T16:40:40;11.80;54.90
5960;DHT22;3006;50.956;7.002;2023-04-03T16:43:08;11.70;56.20
5960;DHT22;3006;50.956;7.002;2023-04-03T16:45:38;11.50;56.60
5960;DHT22;3006;50.956;7.002;2023-04-03T16:48:07;11.40;57.40
5960;DHT22;3006;50.956;7.002;2023-04-03T16:50:35;11.40;57.70
5960;DHT22;3006;50.956;7.002;2023-04-03T16:53:03;11.30;57.50
5960;DHT22;3006;50.956;7.002;2023-04-03T16:55:35;11.20;58.10